메인 페이지
METAR-TAF:

METAR-TAF

공항 :

라고스, 나이지리아

무르탈라 모하메드 국제공항

위도: 06-35N, 경도: 003-20E, 고도: 40m

현재 날씨관측

예보는 44분 전, 09:00시(UTC)에 발표되었습니다.
서북서4kt
온도 29°C
습도 89%
기압 1014 hPa
시정: 7000m
고도 1300ft 상공 구름 보통

METAR: DNMM 180900Z 29004KT 7000 SCT013 29/27 Q1014 NOSIG

시각: 10:44 (09:44 UTC)

예보

예보는 12 시간 14분 전, 21:30시(UTC)에 발표되었습니다.
예보 대상 시간: 18일 00시부터 19일 06시까지 (UTC)
여러 방향의 바람 2kt
시정: 6000m
일시적
18일 05시부터 18일 08시까지 (UTC)
시정: 3000m
박무

TAF: DNMM 172130Z 1800/1906 VRB02KT 6000 NSC TEMPO 1805/1808 3000 BR

4,000개 이상의 공항 관측 자료 및 예보 (METAR 및 TAF 보고).

지도상에서 검색 가능한 기상관측소가 노란 점과 빨간 점으로 표시되어 있습니다.

기상관측소 명을 보려면 표시 위로 마우스를 이동하세요.

날씨 관측과 예보를 보려면 클릭하세요.

지도 변경 : 확대하려면 엑스 표시가 있는 녹색 버튼, 축소하려면 빼기 표시가 있는 녹색 버튼, 다음 페이지의 지도를 보려면 녹색 화살표를 클릭하세요.


METAR-TAF: